Eurika — LYRZ — position and weather

sailwx.info

Track history (hours):
 
Tides and Currents Weather Stations Pressure Air Temp Water Temp Dewpoint Dewpoint Depression Visibility Wind Speed Wind Dir Waves Ship Positions

Eurika

Last reported at 2016-Dec-28 16:33 UTC. Time now 2017-Jan-18 13:54 UTC.
Position N 41°06' E 001°14'.
Warning: this ship's position is 20 days out of date.

Length 79 m; draft 2.2 m.

MMSI: 277335000.

Date/timePositionNaut miles runAvg speedWind from/ knotsBaromVisibWave heightAir tempDewpointWater temp
2016-Dec-28 16:33N 41°06' E 001°14'2 0.1
2016-Dec-27 16:31N 41°06' E 001°17'0 0.0
2016-Dec-26 11:33N 41°06' E 001°17'0 0.0
2016-Dec-26 04:33N 41°06' E 001°17'27 1.6
2016-Dec-25 11:04N 40°41' E 001°31'4 7.8
2016-Dec-25 10:32N 40°37' E 001°33'7 7.5
2016-Dec-25 09:33N 40°30' E 001°36'7 7.3
2016-Dec-25 08:33N 40°23' E 001°38'8 7.8
2016-Dec-25 07:33N 40°16' E 001°43'8 8.0
2016-Dec-25 06:33N 40°09' E 001°48'8 8.0
2016-Dec-25 05:33N 40°02' E 001°53'8 8.0
2016-Dec-25 04:34N 39°55' E 001°58'8 8.1
2016-Dec-25 03:33N 39°48' E 002°03'11 8.4
2016-Dec-25 02:17N 39°38' E 002°09'7 8.4
2016-Dec-25 01:25N 39°32' E 002°13'7 8.0
2016-Dec-25 00:33N 39°26' E 002°18'8 7.7
2016-Dec-24 23:33N 39°21' E 002°25'7 7.5
2016-Dec-24 22:33N 39°15' E 002°31'8 7.6
2016-Dec-24 21:33N 39°09' E 002°38'8 7.7
2016-Dec-24 20:33N 39°04' E 002°44'9 7.7
2016-Dec-24 19:26N 38°57' E 002°52'  
Track history (hours):
 
Tides and Currents Weather Stations Pressure Air Temp Water Temp Dewpoint Dewpoint Depression Visibility Wind Speed Wind Dir Waves Ship Positions

Eurika

Last reported at 2016-Dec-28 16:33 UTC. Time now 2017-Jan-18 13:54 UTC.
Position N 41°06' E 001°14'.
Warning: this ship's position is 20 days out of date.

Length 79 m; draft 2.2 m.

MMSI: 277335000.

Date/timePositionNaut miles runAvg speedWind from/ knotsBaromVisibWave heightAir tempDewpointWater temp
2016-Dec-28 16:33N 41°06' E 001°14'2 0.1
2016-Dec-27 16:31N 41°06' E 001°17'0 0.0
2016-Dec-26 11:33N 41°06' E 001°17'0 0.0
2016-Dec-26 04:33N 41°06' E 001°17'27 1.6
2016-Dec-25 11:04N 40°41' E 001°31'4 7.8
2016-Dec-25 10:32N 40°37' E 001°33'7 7.5
2016-Dec-25 09:33N 40°30' E 001°36'7 7.3
2016-Dec-25 08:33N 40°23' E 001°38'8 7.8
2016-Dec-25 07:33N 40°16' E 001°43'8 8.0
2016-Dec-25 06:33N 40°09' E 001°48'8 8.0
2016-Dec-25 05:33N 40°02' E 001°53'8 8.0
2016-Dec-25 04:34N 39°55' E 001°58'8 8.1
2016-Dec-25 03:33N 39°48' E 002°03'11 8.4
2016-Dec-25 02:17N 39°38' E 002°09'7 8.4
2016-Dec-25 01:25N 39°32' E 002°13'7 8.0
2016-Dec-25 00:33N 39°26' E 002°18'8 7.7
2016-Dec-24 23:33N 39°21' E 002°25'7 7.5
2016-Dec-24 22:33N 39°15' E 002°31'8 7.6
2016-Dec-24 21:33N 39°09' E 002°38'8 7.7
2016-Dec-24 20:33N 39°04' E 002°44'9 7.7
2016-Dec-24 19:26N 38°57' E 002°52'  

Dump ship's entire track history